Details From MMTM - GENERAL FRANCISCO JAVIER MINA INTL
To MMCP - INGENIERO ALBERTO ACUNA ONGAY INTL
Flight Number -
Tags decoded
Created
Modified
Stats Distance 564 nm / 1,044 km
Max Altitude 0 ft / 0 m
Waypoints 4
Social Downloads 0
Likes 0
Share VATSIM

Download

Looking for another format? Having issues loading an existing format? Contact us
Advertisement - Login to hide

Notes

Requested: MMTM VER UJ28 CME MMCP Unmatched points: UJ28

Route

MMTM VER CME MMCP

ID Type Via Altitude Latitude Longitude Leg Dist Tot Dist Heading (true) Name
O MMTM APT - 0 ft / 0 m 22.29645˚ -97.86593˚ - 0 nm - GENERAL FRANCISCO JAVIER MINA INTL
VER VOR - 0 ft / 0 m 19.14322˚ -96.18914˚ 211 nm 211 nm 153° / 154° VERACRUZ VOR-DME
CME VOR - 0 ft / 0 m 18.66044˚ -91.80514˚ 250 nm 462 nm 96° / 97° CARMEN VOR-DME
O MMCP APT - 0 ft / 0 m 19.81679˚ -90.50031˚ 101 nm 563 nm 47° / 47° INGENIERO ALBERTO ACUNA ONGAY INTL

Altitude Profile

Advertisement - Login to hide

Weather


0- 5 10 15 20 25 30 35+ Temperature / ° C

Clouds and Precipitation
Forecast for 2017-12-17 18:00 UTC. Updated 43 minutes ago

Ground ~20,000 ft ~40,000 ft Winds

MMTM

Details ICAO MMTM (TAM)
Name GENERAL FRANCISCO JAVIER MINA INTL
Region Mexico
Timezone America/Monterrey (UTC-6.0)
Stats Elevation 80 ft / 24 m (AMSL)
Location 22.296448° -97.865929°
Runways 3
Magnetic Variation 4.023° E

METAR

MMTM 171545Z 00000KT 7SM SCT020 OVC030 19/15 A3009 RMK 8/8//

Decode

TAF

Not found

Departure Runways

ID Width Length Bearing (true) Bearing (mag) Surface Threshold Offset Overrun Length
09 98 ft / 30 m 3,910 ft / 1,192 m 99.70° 95.68° Asphalt 0 ft / 0 m 0 ft / 0 m
13 148 ft / 45 m 8,377 ft / 2,553 m 145.01° 140.99° Asphalt 0 ft / 0 m 0 ft / 0 m
18 98 ft / 30 m 4,045 ft / 1,233 m 190.22° 186.20° Asphalt 0 ft / 0 m 0 ft / 0 m
27 98 ft / 30 m 3,910 ft / 1,192 m 279.70° 275.68° Asphalt 0 ft / 0 m 0 ft / 0 m
31 148 ft / 45 m 8,377 ft / 2,553 m 325.02° 321.00° Asphalt 0 ft / 0 m 44 ft / 13 m
36 98 ft / 30 m 4,045 ft / 1,233 m 10.22° 6.20° Asphalt 0 ft / 0 m 0 ft / 0 m

MMCP

Details ICAO MMCP (CPE)
Name INGENIERO ALBERTO ACUNA ONGAY INTL
Region Mexico
Timezone America/Merida (UTC-6.0)
Stats Elevation 34 ft / 10 m (AMSL)
Location 19.816795° -90.500314°
Runways 1
Magnetic Variation 0.392° E

METAR

MMCP 171553Z 09008KT 7SM BKN020 27/24 A3005 RMK 8/100

Decode

TAF

TAF AMD MMCP 171223Z 1712/1806 00000KT 2SM BR OVC005 TEMPO 1712/1715 1SM BR OVC004 FM171500 08010KT 4SM HZ BKN015 FM171800 13010KT 6SM HZ SCT030 FM180200 08005KT 6SM HZ SCT020

Decode

Destination Runways

ID Width Length Bearing (true) Bearing (mag) Surface Threshold Offset Overrun Length
16 148 ft / 45 m 8,264 ft / 2,519 m 166.22° 165.83° Asphalt 0 ft / 0 m 0 ft / 0 m
34 148 ft / 45 m 8,264 ft / 2,519 m 346.22° 345.83° Asphalt 0 ft / 0 m 160 ft / 49 m

Popular Alternatives